Time;durP1;ratioP1;P1;durP2;ratioP2;P2;SDS_P1;SDS_P2;PMS_P1;PMS_P2;Temp;Humidity;BMP_temperature;BMP_pressure;BME280_temperature;BME280_humidity;BME280_pressure;Samples;Min_cycle;Max_cycle;Signal;HPM_P1;HPM_P2
2022/07/25 00:00:09;;;;;;;1009.92;943.67;;;;;;;23.55;40.11;101130.41;684557;28;23409;-67
2022/07/25 00:00:31;;;;;;;1008.38;942.15;;;;;;;23.54;39.81;101128.78;684818;28;15812;-67
2022/07/25 00:00:53;;;;;;;1008.95;942.65;;;;;;;23.56;39.96;101134.84;684940;28;1648;-68
2022/07/25 00:01:14;;;;;;;1012.50;946.10;;;;;;;23.55;39.76;101133.19;683494;28;43389;-68
2022/07/25 00:01:35;;;;;;;1012.42;945.95;;;;;;;23.57;39.72;101138.44;684578;28;22397;-67
2022/07/25 00:01:57;;;;;;;1009.60;943.30;;;;;;;23.56;39.69;101134.03;684431;28;22347;-67
2022/07/25 00:02:19;;;;;;;1009.35;943.08;;;;;;;23.57;39.38;101128.25;683066;28;69409;-67
2022/07/25 00:02:40;;;;;;;1008.67;942.38;;;;;;;23.57;39.59;101136.53;684499;28;21483;-67
2022/07/25 00:03:01;;;;;;;1008.95;942.65;;;;;;;23.58;39.46;101131.84;684456;28;21548;-67
2022/07/25 00:03:23;;;;;;;1001.95;935.95;;;;;;;23.58;39.66;101129.91;683908;28;46246;-67
2022/07/25 00:03:45;;;;;;;1002.70;936.67;;;;;;;23.60;39.78;101134.34;684850;28;23419;-67
2022/07/25 00:04:07;;;;;;;1006.65;940.45;;;;;;;23.61;39.49;101127.75;685056;28;44002;-67
2022/07/25 00:04:28;;;;;;;1006.70;940.60;;;;;;;23.58;39.58;101127.16;683921;28;45338;-67
2022/07/25 00:04:50;;;;;;;1009.70;943.42;;;;;;;23.60;39.81;101131.59;684652;28;22405;-67
2022/07/25 00:05:12;;;;;;;1005.97;939.78;;;;;;;23.58;39.53;101127.16;683141;28;69400;-67
2022/07/25 00:05:33;;;;;;;1010.00;943.67;;;;;;;23.61;39.52;101127.75;684486;28;21540;-67
2022/07/25 00:05:54;;;;;;;1004.78;938.70;;;;;;;23.60;39.81;101124.13;684597;28;21291;-67
2022/07/25 00:06:16;;;;;;;1000.08;934.13;;;;;;;23.59;39.52;101125.25;684915;28;23352;-67
2022/07/25 00:06:38;;;;;;;1005.13;939.05;;;;;;;23.59;39.67;101130.75;683184;28;46358;-67
2022/07/25 00:06:59;;;;;;;1010.08;943.75;;;;;;;23.60;39.59;101124.13;683866;28;44419;-67
2022/07/25 00:07:25;;;;;;;1007.65;941.35;;;;;;;23.54;39.84;101111.38;683127;28;59242;-67
2022/07/25 00:07:49;;;;;;;1008.92;942.63;;;;;;;23.62;39.59;101123.88;684309;28;23513;-67
2022/07/25 00:08:11;;;;;;;1002.70;936.70;;;;;;;23.61;39.44;101123.06;681999;28;92007;-67
2022/07/25 00:08:32;;;;;;;998.17;932.28;;;;;;;23.62;39.29;101123.88;684000;28;45227;-67
2022/07/25 00:08:53;;;;;;;996.08;930.28;;;;;;;23.61;39.77;101120.31;684469;28;21620;-67
2022/07/25 00:09:15;;;;;;;1005.20;939.05;;;;;;;23.60;39.51;101126.91;684326;28;22400;-67
2022/07/25 00:09:36;;;;;;;1005.95;939.78;;;;;;;23.60;39.57;101124.13;684942;28;45335;-67
2022/07/25 00:09:58;;;;;;;996.95;931.15;;;;;;;23.61;39.63;101123.06;684823;28;21547;-67
2022/07/25 00:10:20;;;;;;;1002.85;936.78;;;;;;;23.62;39.56;101129.41;685614;28;864;-67
2022/07/25 00:10:41;;;;;;;1001.33;935.35;;;;;;;23.63;39.41;101126.38;683953;28;47763;-67
2022/07/25 00:11:03;;;;;;;1002.30;936.25;;;;;;;23.62;39.28;101124.75;684720;28;21460;-67
2022/07/25 00:11:24;;;;;;;1000.05;934.13;;;;;;;23.62;39.47;101118.38;681681;28;46845;-67
2022/07/25 00:11:45;;;;;;;997.60;931.80;;;;;;;23.60;39.45;101126.91;684888;28;22410;-67
2022/07/25 00:12:08;;;;;;;1006.53;940.33;;;;;;;23.58;39.61;101118.88;685776;28;23688;-67
2022/07/25 00:12:34;;;;;;;995.55;929.75;;;;;;;23.58;39.47;101118.06;683611;28;60404;-67
2022/07/25 00:12:55;;;;;;;1003.33;937.30;;;;;;;23.60;39.37;101115.03;684842;28;22402;-66
2022/07/25 00:13:16;;;;;;;1008.88;942.65;;;;;;;23.58;39.60;101121.63;683761;28;44400;-67
2022/07/25 00:13:38;;;;;;;1004.28;938.17;;;;;;;23.57;39.55;101119.13;684970;28;23680;-66
2022/07/25 00:13:59;;;;;;;1008.47;942.17;;;;;;;23.59;39.94;101119.75;683821;28;46122;-67
2022/07/25 00:14:20;;;;;;;1009.83;943.53;;;;;;;23.58;39.59;101118.88;684747;28;22363;-67
2022/07/25 00:14:42;;;;;;;1011.50;945.20;;;;;;;23.57;39.82;101119.13;685770;28;23464;-67
2022/07/25 00:15:05;;;;;;;1008.85;942.65;;;;;;;23.57;39.68;101120.00;684272;28;23449;-67
2022/07/25 00:15:26;;;;;;;1006.20;940.00;;;;;;;23.58;39.81;101118.06;682128;28;92170;-67
2022/07/25 00:15:47;;;;;;;1007.78;941.58;;;;;;;23.54;39.62;101117.75;684507;28;22375;-68
2022/07/25 00:16:08;;;;;;;1011.60;945.20;;;;;;;23.57;39.68;101108.97;684209;28;22336;-68
2022/07/25 00:16:31;;;;;;;1012.75;946.38;;;;;;;23.57;39.96;101113.63;683592;28;22379;-67
2022/07/25 00:16:52;;;;;;;999.92;933.97;;;;;;;23.58;39.66;101115.31;683536;28;44387;-67
2022/07/25 00:17:13;;;;;;;1006.13;939.92;;;;;;;23.57;39.83;101111.72;684729;28;45431;-67
2022/07/25 00:17:35;;;;;;;1006.35;940.20;;;;;;;23.57;39.91;101114.47;684380;28;23690;-67
2022/07/25 00:17:56;;;;;;;1008.15;941.95;;;;;;;23.58;39.75;101110.59;684378;28;22407;-67
2022/07/25 00:18:18;;;;;;;999.80;934.00;;;;;;;23.61;39.73;101113.97;683854;28;46266;-67
2022/07/25 00:18:39;;;;;;;996.03;930.50;;;;;;;23.60;39.57;101121.38;682703;28;69231;-67
2022/07/25 00:19:00;;;;;;;992.05;926.80;;;;;;;23.58;39.39;101112.53;684462;28;22429;-67
2022/07/25 00:19:22;;;;;;;995.30;929.80;;;;;;;23.59;39.83;101114.22;684101;28;22392;-67
2022/07/25 00:19:44;;;;;;;993.92;928.58;;;;;;;23.59;39.81;101114.22;685736;28;21378;-67
2022/07/25 00:20:07;;;;;;;985.25;920.33;;;;;;;23.57;39.66;101113.63;683876;28;44327;-67
2022/07/25 00:20:28;;;;;;;992.90;927.65;;;;;;;23.57;39.67;101116.38;683314;28;69266;-67
2022/07/25 00:20:49;;;;;;;994.47;929.08;;;;;;;23.56;39.48;101109.22;684691;28;23338;-67
2022/07/25 00:21:12;;;;;;;1015.08;948.60;;;;;;;23.55;39.78;101110.28;683750;28;46336;-67
2022/07/25 00:21:33;;;;;;;1012.63;946.17;;;;;;;23.54;39.69;101111.38;683333;28;46305;-67
2022/07/25 00:21:54;;;;;;;1012.20;945.83;;;;;;;23.54;40.01;101111.38;684158;28;22393;-67
2022/07/25 00:22:15;;;;;;;1019.90;953.23;;;;;;;23.54;39.75;101108.63;684982;28;45233;-68
2022/07/25 00:22:37;;;;;;;1015.15;948.55;;;;;;;23.54;39.67;101115.00;683273;28;46157;-67
2022/07/25 00:23:00;;;;;;;1021.53;954.63;;;;;;;23.50;39.94;101107.47;683722;28;44141;-68
2022/07/25 00:23:21;;;;;;;1023.10;956.25;;;;;;;23.51;40.07;101106.38;683386;28;45244;-67
2022/07/25 00:23:42;;;;;;;1021.10;954.38;;;;;;;23.50;40.08;101108.31;684339;28;21334;-68
2022/07/25 00:24:05;;;;;;;1010.70;944.38;;;;;;;23.51;39.91;101104.47;683350;28;46167;-67
2022/07/25 00:24:26;;;;;;;1005.90;939.83;;;;;;;23.51;39.90;101106.38;683638;28;44167;-68
2022/07/25 00:24:47;;;;;;;1004.35;938.33;;;;;;;23.52;39.79;101105.28;685510;28;22416;-67
2022/07/25 00:25:09;;;;;;;1003.38;937.28;;;;;;;23.51;39.83;101101.72;683672;28;44008;-67
2022/07/25 00:25:31;;;;;;;998.83;932.90;;;;;;;23.53;39.86;101102.28;684249;28;21519;-67
2022/07/25 00:25:53;;;;;;;995.65;929.95;;;;;;;23.52;39.62;101100.59;682438;28;67308;-67
2022/07/25 00:26:15;;;;;;;1001.97;936.00;;;;;;;23.55;40.03;101107.53;684578;28;21488;-67
2022/07/25 00:26:36;;;;;;;997.13;931.33;;;;;;;23.56;39.84;101109.22;682067;28;67507;-67
2022/07/25 00:26:58;;;;;;;1007.38;941.13;;;;;;;23.51;39.75;101100.84;683988;28;22399;-67
2022/07/25 00:27:20;;;;;;;999.72;933.78;;;;;;;23.57;39.70;101102.59;683114;28;23349;-67
2022/07/25 00:27:41;;;;;;;994.10;928.45;;;;;;;23.56;39.64;101104.53;682861;28;44378;-66
2022/07/25 00:28:03;;;;;;;1002.03;936.05;;;;;;;23.55;39.68;101102.84;684210;28;21546;-67
2022/07/25 00:28:24;;;;;;;1000.90;935.00;;;;;;;23.55;39.90;101100.09;684124;28;45311;-66
2022/07/25 00:28:46;;;;;;;1002.47;936.58;;;;;;;23.56;39.99;101101.78;684777;28;21546;-66
2022/07/25 00:29:07;;;;;;;1004.95;938.88;;;;;;;23.54;39.94;101100.34;684057;28;44370;-67
2022/07/25 00:29:29;;;;;;;999.75;933.90;;;;;;;23.58;39.62;101096.00;684010;28;44382;-67
2022/07/25 00:29:58;;;;;;;1009.92;943.67;;;;;;;23.56;39.88;101095.44;683080;28;61293;-67
2022/07/25 00:30:19;;;;;;;1010.55;944.25;;;;;;;23.55;39.61;101091.81;683744;28;46284;-67
2022/07/25 00:30:40;;;;;;;1010.65;944.38;;;;;;;23.55;39.51;101091.81;684299;28;23480;-67
2022/07/25 00:31:02;;;;;;;1008.50;942.30;;;;;;;23.57;39.76;101095.19;684196;28;22406;-67
2022/07/25 00:31:25;;;;;;;1000.65;934.67;;;;;;;23.58;39.90;101098.75;683922;28;13700;-66
2022/07/25 00:31:46;;;;;;;1000.10;934.20;;;;;;;23.57;39.49;101095.19;683707;28;22393;-67
2022/07/25 00:32:07;;;;;;;1005.80;939.60;;;;;;;23.56;39.88;101096.25;684325;28;22390;-67
2022/07/25 00:32:29;;;;;;;1003.72;937.67;;;;;;;23.57;39.59;101103.44;684320;28;22397;-67
2022/07/25 00:32:51;;;;;;;1001.38;935.42;;;;;;;23.57;39.71;101103.44;682369;28;46303;-67
2022/07/25 00:33:12;;;;;;;1008.72;942.53;;;;;;;23.56;39.72;101095.44;683145;28;46428;-67
2022/07/25 00:33:34;;;;;;;1008.60;942.40;;;;;;;23.56;40.05;101093.50;684347;28;22458;-67
2022/07/25 00:33:56;;;;;;;1007.25;941.08;;;;;;;23.55;39.70;101091.81;683395;28;46423;-67
2022/07/25 00:34:17;;;;;;;1001.20;935.25;;;;;;;23.56;39.70;101103.69;684321;28;46240;-67
2022/07/25 00:34:38;;;;;;;1004.40;938.40;;;;;;;23.56;39.67;101100.94;684806;28;22416;-67
2022/07/25 00:35:00;;;;;;;997.42;931.63;;;;;;;23.56;39.51;101096.25;684310;28;23489;-67
2022/07/25 00:35:25;;;;;;;1001.10;935.15;;;;;;;23.57;39.62;101095.19;681795;28;92261;-67
2022/07/25 00:35:46;;;;;;;1004.33;938.28;;;;;;;23.57;39.81;101095.19;683019;28;70592;-67
2022/07/25 00:36:07;;;;;;;995.88;930.17;;;;;;;23.57;39.44;101099.84;683645;28;22244;-67
2022/07/25 00:36:29;;;;;;;989.88;924.42;;;;;;;23.55;39.56;101096.50;683834;28;22391;-67
2022/07/25 00:36:54;;;;;;;1000.40;934.58;;;;;;;23.56;39.91;101095.44;684824;28;13932;-67
2022/07/25 00:37:15;;;;;;;1008.55;942.35;;;;;;;23.55;39.64;101091.81;683037;28;67473;-67
2022/07/25 00:37:36;;;;;;;1014.78;948.33;;;;;;;23.54;39.61;101100.34;685619;28;23429;-67
2022/07/25 00:37:57;;;;;;;1004.42;938.38;;;;;;;23.50;39.74;101099.22;684877;28;22251;-67
2022/07/25 00:38:20;;;;;;;991.42;925.88;;;;;;;23.50;39.87;101094.53;684814;28;23468;-67
2022/07/25 00:38:41;;;;;;;992.75;927.13;;;;;;;23.50;39.62;101097.28;683147;28;67054;-67
2022/07/25 00:39:04;;;;;;;1006.13;940.08;;;;;;;23.48;39.57;101096.72;685213;28;22163;-67
2022/07/25 00:39:25;;;;;;;1004.10;938.05;;;;;;;23.49;39.72;101097.53;683518;28;46240;-67
2022/07/25 00:39:46;;;;;;;1009.78;943.50;;;;;;;23.48;39.89;101101.38;683479;28;46410;-67
2022/07/25 00:40:09;;;;;;;994.75;929.03;;;;;;;23.47;39.75;101092.28;685146;28;22350;-68
2022/07/25 00:40:31;;;;;;;1004.07;938.07;;;;;;;23.45;39.70;101090.84;682945;28;70199;-68
2022/07/25 00:40:52;;;;;;;1006.75;940.55;;;;;;;23.46;39.54;101098.88;682866;28;69250;-67
2022/07/25 00:41:13;;;;;;;1000.65;934.67;;;;;;;23.48;39.57;101099.47;684252;28;22353;-68
2022/07/25 00:41:35;;;;;;;1004.08;938.00;;;;;;;23.50;39.60;101099.22;684288;28;23433;-67
2022/07/25 00:41:57;;;;;;;1006.50;940.38;;;;;;;23.50;39.99;101094.53;684056;28;21527;-67
2022/07/25 00:42:18;;;;;;;1000.47;934.55;;;;;;;23.51;39.73;101098.09;683065;28;67488;-67
2022/07/25 00:42:39;;;;;;;998.90;933.08;;;;;;;23.49;39.40;101101.13;684745;28;22390;-67
2022/07/25 00:43:00;;;;;;;995.47;929.78;;;;;;;23.51;39.50;101098.09;684418;28;21535;-67
2022/07/25 00:43:23;;;;;;;995.13;929.42;;;;;;;23.48;39.84;101093.09;684107;28;21520;-67
2022/07/25 00:43:44;;;;;;;988.80;923.25;;;;;;;23.50;39.64;101101.97;683216;28;45015;-67
2022/07/25 00:44:05;;;;;;;994.85;929.15;;;;;;;23.50;39.66;101102.78;683966;28;46605;-67
2022/07/25 00:44:29;;;;;;;1004.83;938.70;;;;;;;23.50;39.59;101102.78;684623;28;21532;-67
2022/07/25 00:44:52;;;;;;;1003.67;937.65;;;;;;;23.51;39.80;101109.13;681862;28;90784;-67
2022/07/25 00:45:13;;;;;;;994.60;928.92;;;;;;;23.50;39.90;101101.97;682848;28;69534;-67
2022/07/25 00:45:34;;;;;;;1004.15;938.08;;;;;;;23.49;39.82;101100.28;684425;28;21542;-67
2022/07/25 00:45:57;;;;;;;1013.22;946.83;;;;;;;23.49;39.68;101101.13;684486;28;22396;-67
2022/07/25 00:46:18;;;;;;;996.55;930.80;;;;;;;23.49;39.96;101095.59;685310;28;69377;-67
2022/07/25 00:46:40;;;;;;;987.70;922.55;;;;;;;23.49;39.58;101098.34;685762;28;21279;-67
2022/07/25 00:47:05;;;;;;;958.35;894.65;;;;;;;23.48;39.58;101093.09;685569;28;31929;-67
2022/07/25 00:47:26;;;;;;;959.15;895.42;;;;;;;23.46;40.00;101096.09;684324;28;93234;-68
2022/07/25 00:47:47;;;;;;;961.33;897.65;;;;;;;23.49;39.93;101100.28;686161;28;45063;-69
2022/07/25 00:48:09;;;;;;;961.10;897.35;;;;;;;23.49;39.89;101097.53;686927;28;23444;-68
2022/07/25 00:48:31;;;;;;;958.72;895.05;;;;;;;23.47;40.05;101100.53;685701;28;45261;-69
2022/07/25 00:48:52;;;;;;;961.47;897.72;;;;;;;23.47;40.01;101097.78;685599;28;21346;-68
2022/07/25 00:49:13;;;;;;;963.05;899.33;;;;;;;23.47;39.88;101094.22;684218;28;22416;-67
2022/07/25 00:49:43;;;;;;;967.90;903.97;;;;;;;23.45;40.26;101096.34;684177;28;60535;-67
2022/07/25 00:50:06;;;;;;;961.38;897.67;;;;;;;23.43;40.09;101093.84;685348;28;971;-67
2022/07/25 00:50:29;;;;;;;957.63;894.10;;;;;;;23.43;40.26;101095.78;685205;28;13408;-67
2022/07/25 00:50:58;;;;;;;961.05;897.33;;;;;;;23.43;40.26;101093.03;683394;28;61303;-67
2022/07/25 00:51:22;;;;;;;957.22;893.65;;;;;;;23.42;40.28;101089.47;684202;28;14919;-67
2022/07/25 00:51:45;;;;;;;955.25;891.75;;;;;;;23.36;40.12;101079.44;686039;28;1567;-67
2022/07/25 00:52:06;;;;;;;965.88;901.97;;;;;;;23.39;40.03;101090.78;688661;28;967;-67
2022/07/25 00:52:28;;;;;;;959.05;895.42;;;;;;;23.39;40.17;101088.03;685015;28;856;-67
2022/07/25 00:52:55;;;;;;;962.05;898.33;;;;;;;23.40;40.09;101094.38;682714;28;61677;-67
2022/07/25 00:53:17;;;;;;;982.47;917.60;;;;;;;23.39;40.07;101090.78;683017;28;29858;-68
2022/07/25 00:53:39;;;;;;;1004.03;938.08;;;;;;;23.39;40.00;101089.97;683262;28;45249;-67
2022/07/25 00:54:00;;;;;;;988.05;922.92;;;;;;;23.36;39.93;101095.97;682653;28;69210;-67
2022/07/25 00:54:23;;;;;;;960.70;896.95;;;;;;;23.36;40.11;101091.28;684087;28;23143;-67
2022/07/25 00:54:44;;;;;;;944.55;881.47;;;;;;;23.35;39.96;101089.66;683441;28;46256;-67
2022/07/25 00:55:06;;;;;;;957.88;894.30;;;;;;;23.36;40.38;101087.72;684371;28;21219;-67
2022/07/25 00:55:29;;;;;;;970.45;906.30;;;;;;;23.33;40.05;101080.78;683409;28;45238;-67
2022/07/25 00:55:50;;;;;;;962.95;899.15;;;;;;;23.35;39.98;101091.56;682647;28;69368;-67
2022/07/25 00:56:11;;;;;;;962.08;898.33;;;;;;;23.33;40.05;101083.53;683725;28;46364;-67
2022/07/25 00:56:33;;;;;;;973.53;909.42;;;;;;;23.33;40.32;101088.22;683619;28;22403;-67
2022/07/25 00:56:55;;;;;;;967.67;903.63;;;;;;;23.30;40.12;101086.78;683087;28;47136;-68
2022/07/25 00:57:17;;;;;;;963.35;899.40;;;;;;;23.29;40.40;101084.28;684099;28;44188;-67
2022/07/25 00:57:38;;;;;;;960.13;896.42;;;;;;;23.30;40.11;101085.97;684617;28;22386;-66
2022/07/25 00:58:02;;;;;;;966.47;902.63;;;;;;;23.28;40.22;101088.97;684522;28;23535;-67
2022/07/25 00:58:23;;;;;;;965.83;901.90;;;;;;;23.27;40.02;101084.53;682035;28;90715;-67
2022/07/25 00:58:44;;;;;;;963.97;900.10;;;;;;;23.25;40.32;101075.72;684159;28;22379;-67
2022/07/25 00:59:05;;;;;;;968.97;904.80;;;;;;;23.24;40.37;101076.78;684307;28;21014;-67
2022/07/25 00:59:26;;;;;;;1005.33;939.35;;;;;;;23.26;40.38;101079.28;685156;28;892;-67
2022/07/25 00:59:49;;;;;;;1003.03;937.00;;;;;;;23.26;40.10;101082.91;684477;28;22476;-67
2022/07/25 01:00:13;;;;;;;1008.35;942.10;;;;;;;23.26;40.34;101080.16;683495;28;46323;-67
2022/07/25 01:00:34;;;;;;;1006.38;940.25;;;;;;;23.26;40.18;101080.16;682249;28;92250;-67
2022/07/25 01:00:55;;;;;;;1014.05;947.65;;;;;;;23.26;40.27;101080.16;683930;28;21281;-67
2022/07/25 01:01:17;;;;;;;1007.03;940.80;;;;;;;23.26;40.45;101082.91;684177;28;22246;-67
2022/07/25 01:01:39;;;;;;;1008.78;942.50;;;;;;;23.24;40.35;101076.78;682765;28;46295;-67
2022/07/25 01:02:03;;;;;;;1013.25;946.85;;;;;;;23.23;40.25;101072.38;683652;28;45323;-67
2022/07/25 01:02:24;;;;;;;1011.72;945.42;;;;;;;23.21;40.10;101071.78;682137;28;90717;-68
2022/07/25 01:02:47;;;;;;;1010.70;944.40;;;;;;;23.21;40.42;101074.53;684378;28;21530;-67
2022/07/25 01:03:08;;;;;;;1010.90;944.58;;;;;;;23.21;40.31;101080.91;683357;28;69485;-67
2022/07/25 01:03:29;;;;;;;1007.50;941.38;;;;;;;23.21;40.14;101075.41;684534;28;21406;-67
2022/07/25 01:03:51;;;;;;;1006.55;940.45;;;;;;;23.22;40.34;101070.72;684698;28;21552;-67
2022/07/25 01:04:13;;;;;;;1004.85;938.85;;;;;;;23.20;40.23;101072.88;683836;28;44386;-67
2022/07/25 01:04:35;;;;;;;1009.07;942.93;;;;;;;23.23;40.19;101072.38;683780;28;67497;-67
2022/07/25 01:04:57;;;;;;;1009.78;943.53;;;;;;;23.23;40.15;101071.53;683606;28;46320;-67
2022/07/25 01:05:18;;;;;;;1017.42;950.78;;;;;;;23.21;40.39;101080.91;683442;28;46222;-67
2022/07/25 01:05:40;;;;;;;1021.30;954.45;;;;;;;23.19;40.06;101069.28;684917;28;21466;-67
2022/07/25 01:06:02;;;;;;;1008.28;942.05;;;;;;;23.20;40.46;101073.72;682363;28;45279;-67
2022/07/25 01:06:23;;;;;;;1010.85;944.65;;;;;;;23.20;40.41;101078.41;680492;28;44379;-67
2022/07/25 01:06:44;;;;;;;1003.35;937.35;;;;;;;23.20;40.48;101070.13;682132;28;22393;-67
2022/07/25 01:07:07;;;;;;;1001.78;935.78;;;;;;;23.20;40.60;101078.41;684538;28;21552;-67
2022/07/25 01:07:28;;;;;;;1009.83;943.53;;;;;;;23.15;40.23;101070.03;682355;28;68354;-67
2022/07/25 01:07:51;;;;;;;999.25;933.40;;;;;;;23.18;40.39;101069.53;684045;28;22215;-67
2022/07/25 01:08:12;;;;;;;1003.03;937.00;;;;;;;23.18;40.31;101072.28;683167;28;69429;-67
2022/07/25 01:08:34;;;;;;;1009.15;942.92;;;;;;;23.20;40.37;101079.22;683666;28;46372;-67
2022/07/25 01:08:57;;;;;;;1012.08;945.70;;;;;;;23.17;40.52;101065.13;683425;28;46571;-67
2022/07/25 01:09:19;;;;;;;995.45;929.70;;;;;;;23.16;40.57;101071.72;682804;28;67618;-68
2022/07/25 01:09:40;;;;;;;1003.17;937.17;;;;;;;23.19;40.43;101074.78;684011;28;45083;-68
2022/07/25 01:10:02;;;;;;;1002.28;936.30;;;;;;;23.19;40.47;101074.78;684661;28;22377;-67
2022/07/25 01:10:25;;;;;;;998.92;933.13;;;;;;;23.19;40.33;101071.22;683750;28;45229;-67
2022/07/25 01:10:47;;;;;;;1001.17;935.25;;;;;;;23.17;40.50;101068.72;683796;28;46387;-67
2022/07/25 01:11:08;;;;;;;1006.03;940.00;;;;;;;23.13;40.37;101067.53;684336;28;46373;-67
2022/07/25 01:11:29;;;;;;;1009.45;943.20;;;;;;;23.17;40.29;101067.88;682863;28;45368;-67
2022/07/25 01:11:52;;;;;;;1012.45;946.08;;;;;;;23.16;40.65;101071.72;684182;28;21354;-67
2022/07/25 01:12:13;;;;;;;999.55;933.65;;;;;;;23.16;40.41;101067.03;684347;28;46214;-67
2022/07/25 01:12:44;;;;;;;1006.20;940.13;;;;;;;23.09;40.50;101062.78;684322;28;21451;-67
2022/07/25 01:13:06;;;;;;;1005.53;939.40;;;;;;;23.13;40.20;101063.97;683050;28;61269;-67
2022/07/25 01:13:28;;;;;;;1011.05;944.65;;;;;;;23.12;40.24;101071.41;683593;28;22256;-67
2022/07/25 01:13:49;;;;;;;1011.13;944.75;;;;;;;23.13;40.47;101069.47;679366;29;69357;-67
2022/07/25 01:14:11;;;;;;;1001.67;935.78;;;;;;;23.15;40.22;101064.53;681348;29;21541;-67
2022/07/25 01:14:32;;;;;;;1005.47;939.38;;;;;;;23.12;40.32;101065.88;681293;29;23398;-67
2022/07/25 01:14:55;;;;;;;1004.42;938.38;;;;;;;23.12;40.47;101065.88;681091;28;46285;-67
2022/07/25 01:15:17;;;;;;;1011.72;945.40;;;;;;;23.13;40.46;101066.72;682105;28;69084;-67
2022/07/25 01:15:38;;;;;;;1008.72;942.53;;;;;;;23.13;40.40;101070.28;685829;28;23462;-68
2022/07/25 01:15:59;;;;;;;1010.53;944.22;;;;;;;23.11;40.56;101066.97;685836;28;46378;-68
2022/07/25 01:16:21;;;;;;;1003.42;937.10;;;;;;;23.12;40.58;101060.38;686970;28;22416;-68
2022/07/25 01:16:43;;;;;;;928.55;864.92;;;;;;;23.14;40.87;101069.22;684329;28;66524;-68
2022/07/25 01:17:04;;;;;;;867.58;807.22;;;;;;;23.12;40.47;101065.88;685854;28;22393;-68
2022/07/25 01:17:25;;;;;;;871.60;811.78;;;;;;;23.12;40.32;101057.63;683144;28;46914;-68
2022/07/25 01:17:48;;;;;;;852.72;793.88;;;;;;;23.13;40.51;101066.72;683828;28;22547;-68
2022/07/25 01:18:10;;;;;;;865.92;806.83;;;;;;;23.12;40.54;101065.88;684301;28;46288;-68
2022/07/25 01:18:33;;;;;;;878.25;818.80;;;;;;;23.12;40.29;101067.78;683339;28;45224;-68
2022/07/25 01:18:54;;;;;;;888.47;827.50;;;;;;;23.12;40.42;101063.13;679286;29;69454;-67
2022/07/25 01:19:16;;;;;;;903.10;842.08;;;;;;;23.06;40.40;101055.00;680830;29;45148;-68
2022/07/25 01:19:37;;;;;;;897.95;837.20;;;;;;;23.11;40.70;101068.91;681445;28;44127;-68
2022/07/25 01:19:59;;;;;;;871.17;811.60;;;;;;;23.09;40.40;101066.41;683855;28;23496;-68
2022/07/25 01:20:22;;;;;;;877.33;817.10;;;;;;;23.08;40.40;101064.72;684040;28;21551;-68
2022/07/25 01:20:43;;;;;;;902.97;842.15;;;;;;;23.08;40.56;101061.09;681325;28;90855;-68
2022/07/25 01:21:06;;;;;;;897.55;836.72;;;;;;;23.07;40.34;101059.44;684939;28;21353;-67
2022/07/25 01:21:27;;;;;;;897.88;837.22;;;;;;;23.04;40.77;101061.63;682635;28;46346;-67
2022/07/25 01:21:48;;;;;;;894.13;833.38;;;;;;;23.06;40.71;101066.00;683254;28;46408;-67
2022/07/25 01:22:09;;;;;;;870.83;811.00;;;;;;;23.03;40.70;101054.41;684380;28;22371;-67
2022/07/25 01:22:32;;;;;;;950.17;886.97;;;;;;;23.00;40.72;101056.84;684320;28;22411;-67
2022/07/25 01:22:53;;;;;;;1016.88;950.38;;;;;;;23.03;40.41;101059.94;683367;28;44391;-67
2022/07/25 01:23:14;;;;;;;915.88;854.08;;;;;;;23.02;40.71;101061.03;683463;28;44037;-67
2022/07/25 01:23:36;;;;;;;870.30;810.50;;;;;;;23.02;40.75;101060.19;685251;28;23799;-67
2022/07/25 01:23:58;;;;;;;890.03;829.58;;;;;;;23.01;40.77;101059.38;684246;28;21307;-67
2022/07/25 01:24:19;;;;;;;852.22;793.55;;;;;;;23.02;40.63;101063.78;683682;28;45043;-67
2022/07/25 01:24:40;;;;;;;851.17;792.57;;;;;;;23.00;40.71;101054.09;684387;28;24285;-67
2022/07/25 01:25:02;;;;;;;844.72;785.90;;;;;;;23.00;40.91;101063.19;683320;28;45330;-67
2022/07/25 01:25:24;;;;;;;971.15;906.53;;;;;;;22.98;40.74;101059.03;683929;28;22360;-67
2022/07/25 01:25:45;;;;;;;1015.88;949.38;;;;;;;22.98;40.58;101062.63;682773;28;69320;-67
2022/07/25 01:26:07;;;;;;;1005.97;939.92;;;;;;;22.97;40.81;101058.19;685371;28;21550;-67
2022/07/25 01:26:29;;;;;;;1011.25;944.95;;;;;;;22.97;40.61;101058.19;683647;28;21358;-67
2022/07/25 01:26:51;;;;;;;1015.67;949.25;;;;;;;22.93;40.94;101046.03;682951;28;46331;-67
2022/07/25 01:27:12;;;;;;;951.83;888.00;;;;;;;22.94;40.90;101058.69;682639;28;67460;-67
2022/07/25 01:27:34;;;;;;;968.10;903.83;;;;;;;22.96;40.97;101048.28;684503;28;21547;-67
2022/07/25 01:27:56;;;;;;;976.03;911.42;;;;;;;22.96;40.83;101055.69;684306;28;22375;-67
2022/07/25 01:28:18;;;;;;;994.75;929.28;;;;;;;22.93;40.89;101054.28;682669;28;69075;-67
2022/07/25 01:28:39;;;;;;;1005.72;939.75;;;;;;;22.92;40.94;101051.78;684389;28;45184;-67
2022/07/25 01:29:01;;;;;;;990.75;925.45;;;;;;;22.87;41.03;101049.78;684422;28;22371;-67
2022/07/25 01:29:22;;;;;;;918.97;856.85;;;;;;;22.92;40.69;101047.09;684391;28;21515;-67
2022/07/25 01:29:44;;;;;;;875.38;814.95;;;;;;;22.92;40.94;101051.78;684406;28;23712;-67
2022/07/25 01:30:07;;;;;;;888.00;827.63;;;;;;;22.90;40.95;101052.03;682374;28;69399;-67
2022/07/25 01:30:28;;;;;;;900.88;840.25;;;;;;;22.91;40.92;101048.19;681939;28;93883;-67
2022/07/25 01:30:49;;;;;;;924.22;862.25;;;;;;;22.92;40.66;101051.78;684242;28;23442;-67
2022/07/25 01:31:12;;;;;;;955.92;892.03;;;;;;;22.91;40.73;101048.19;685285;28;21523;-67
2022/07/25 01:31:33;;;;;;;985.05;919.90;;;;;;;22.90;40.70;101045.69;683027;28;45207;-67
2022/07/25 01:31:54;;;;;;;986.72;921.55;;;;;;;22.89;40.88;101047.59;684347;28;23420;-67
2022/07/25 01:32:15;;;;;;;974.85;910.15;;;;;;;22.89;40.82;101058.63;683830;28;46016;-67
2022/07/25 01:32:38;;;;;;;976.13;911.35;;;;;;;22.89;41.01;101053.13;684541;28;21550;-67
2022/07/25 01:32:59;;;;;;;994.78;929.28;;;;;;;22.88;40.75;101047.84;683882;28;44911;-67
2022/07/25 01:33:21;;;;;;;991.90;926.55;;;;;;;22.90;41.07;101051.19;684536;28;23439;-67
2022/07/25 01:33:42;;;;;;;994.78;929.30;;;;;;;22.88;41.02;101042.34;684081;28;45253;-67
2022/07/25 01:34:03;;;;;;;995.00;929.42;;;;;;;22.90;40.91;101048.44;684165;28;21488;-67
2022/07/25 01:34:25;;;;;;;999.15;933.42;;;;;;;22.91;40.73;101052.84;684297;28;23452;-67
2022/07/25 01:34:46;;;;;;;997.63;932.00;;;;;;;22.91;40.79;101056.44;682618;28;66815;-67
2022/07/25 01:35:09;;;;;;;990.05;924.65;;;;;;;22.92;40.68;101058.13;683758;28;44359;-67
2022/07/25 01:35:31;;;;;;;1007.97;941.85;;;;;;;22.92;40.66;101055.38;683419;28;46408;-68
2022/07/25 01:35:52;;;;;;;1004.75;938.72;;;;;;;22.92;41.07;101052.59;682740;28;67507;-67
2022/07/25 01:36:15;;;;;;;1009.35;943.22;;;;;;;22.92;40.89;101051.78;685404;28;23798;-67
2022/07/25 01:36:36;;;;;;;1007.85;941.70;;;;;;;22.93;40.80;101050.69;682729;28;44387;-67
2022/07/25 01:36:57;;;;;;;1012.47;946.00;;;;;;;22.92;41.09;101049.84;683760;28;24688;-67
2022/07/25 01:37:18;;;;;;;1006.35;940.17;;;;;;;22.91;41.08;101042.66;684076;28;23453;-67
2022/07/25 01:37:40;;;;;;;1006.90;940.72;;;;;;;22.90;41.35;101054.78;683677;28;45254;-67